createdAt,value
2018-07-04T00:02:36.721Z,20.46
2018-07-04T00:06:18.341Z,20.52
2018-07-04T00:10:00.223Z,20.47
2018-07-04T00:13:42.128Z,20.09
2018-07-04T00:17:23.920Z,19.98
2018-07-04T00:21:05.670Z,20.09
2018-07-04T00:24:47.393Z,20.02
2018-07-04T00:28:29.328Z,20.08
2018-07-04T00:32:11.082Z,20.33
2018-07-04T00:35:52.683Z,20.42
2018-07-04T00:39:28.418Z,20.23
2018-07-04T00:43:10.171Z,20.42
2018-07-04T00:46:45.917Z,20.75
2018-07-04T00:50:27.677Z,20.21
2018-07-04T00:54:09.499Z,20.30
2018-07-04T00:57:51.265Z,19.62
2018-07-04T01:01:33.087Z,19.64
2018-07-04T01:05:08.911Z,19.53
2018-07-04T01:08:50.823Z,19.37
2018-07-04T01:12:32.553Z,19.31
2018-07-04T01:16:14.325Z,19.10
2018-07-04T01:19:56.217Z,19.06
2018-07-04T01:23:38.044Z,18.82
2018-07-04T01:27:19.713Z,18.72
2018-07-04T01:31:01.446Z,18.88
2018-07-04T01:34:43.724Z,18.66
2018-07-04T01:38:25.254Z,18.77
2018-07-04T01:42:08.170Z,18.97
2018-07-04T01:45:49.938Z,18.53
2018-07-04T01:49:32.030Z,18.55
2018-07-04T01:53:13.741Z,18.98
2018-07-04T01:56:55.441Z,18.98
2018-07-04T02:00:37.052Z,19.18
2018-07-04T02:04:18.786Z,19.45
2018-07-04T02:07:54.559Z,18.97
2018-07-04T02:11:37.312Z,19.08
2018-07-04T02:15:19.387Z,19.01
2018-07-04T02:19:01.130Z,18.88
2018-07-04T02:22:43.246Z,18.88
2018-07-04T02:26:24.962Z,18.96
2018-07-04T02:30:06.588Z,19.12
2018-07-04T02:33:48.490Z,19.18
2018-07-04T02:37:30.290Z,19.29
2018-07-04T02:41:11.974Z,19.03
2018-07-04T02:44:47.562Z,19.02
2018-07-04T02:48:29.414Z,18.75
2018-07-04T02:52:04.915Z,19.26
2018-07-04T02:55:47.033Z,19.82
2018-07-04T02:59:22.729Z,19.49
2018-07-04T03:03:04.374Z,19.10
2018-07-04T03:06:46.224Z,19.26
2018-07-04T03:10:28.120Z,19.10
2018-07-04T03:14:10.096Z,19.10
2018-07-04T03:17:51.924Z,19.26
2018-07-04T03:21:33.690Z,19.33
2018-07-04T03:25:15.524Z,19.13
2018-07-04T03:28:57.123Z,19.07
2018-07-04T03:32:38.998Z,19.11
2018-07-04T03:36:20.882Z,19.15
2018-07-04T03:39:56.833Z,18.95
2018-07-04T03:43:38.633Z,18.75
2018-07-04T03:47:20.539Z,18.58
2018-07-04T03:51:02.333Z,18.91
2018-07-04T03:54:43.937Z,18.97
2018-07-04T03:58:25.769Z,18.53
2018-07-04T04:02:07.871Z,18.86
2018-07-04T04:05:49.565Z,18.76
2018-07-04T04:09:31.281Z,18.51
2018-07-04T04:13:13.163Z,18.41
2018-07-04T04:16:54.793Z,18.57
2018-07-04T04:20:36.556Z,18.57
2018-07-04T04:24:18.440Z,18.72
2018-07-04T04:28:00.474Z,18.78
2018-07-04T04:31:42.059Z,18.65
2018-07-04T04:35:23.993Z,19.15
2018-07-04T04:39:05.989Z,19.52
2018-07-04T04:42:47.874Z,19.63
2018-07-04T04:46:29.697Z,19.20
2018-07-04T04:50:05.372Z,19.19
2018-07-04T04:53:47.045Z,19.47
2018-07-04T04:57:28.860Z,19.46
2018-07-04T05:01:10.712Z,19.65
2018-07-04T05:04:52.327Z,19.65
2018-07-04T05:08:34.254Z,19.94
2018-07-04T05:12:16.216Z,19.86
2018-07-04T05:15:58.131Z,20.02
2018-07-04T05:19:39.949Z,20.34
2018-07-04T05:23:21.815Z,20.59
2018-07-04T05:27:03.733Z,20.82
2018-07-04T05:30:45.468Z,21.16
2018-07-04T05:34:27.205Z,21.22
2018-07-04T05:38:03.255Z,21.40
2018-07-04T05:41:45.028Z,21.52
2018-07-04T05:45:28.296Z,21.50
2018-07-04T05:49:10.131Z,21.52
2018-07-04T05:52:51.803Z,21.75
2018-07-04T05:56:33.477Z,21.93
2018-07-04T06:00:15.386Z,21.89
2018-07-04T06:03:57.243Z,21.86
2018-07-04T06:07:39.366Z,21.83
2018-07-04T06:11:15.079Z,21.85
2018-07-04T06:14:56.962Z,21.55
2018-07-04T06:18:32.519Z,21.71
2018-07-04T06:22:14.463Z,21.66
2018-07-04T06:25:56.221Z,21.68
2018-07-04T06:29:38.105Z,21.88
2018-07-04T06:33:19.851Z,22.08
2018-07-04T06:37:01.838Z,22.15
2018-07-04T06:40:24.711Z,21.95
2018-07-04T06:43:47.624Z,22.00
2018-07-04T06:47:10.469Z,22.11
2018-07-04T06:50:33.359Z,22.43
2018-07-04T06:53:56.225Z,22.63
2018-07-04T06:57:20.157Z,22.62
2018-07-04T07:00:43.235Z,22.86
2018-07-04T07:04:25.106Z,22.85
2018-07-04T07:08:07.044Z,22.76
2018-07-04T07:11:48.641Z,23.24
2018-07-04T07:15:31.152Z,23.26
2018-07-04T07:19:14.432Z,23.52
2018-07-04T07:22:57.378Z,23.44
2018-07-04T07:26:39.682Z,23.52
2018-07-04T07:30:21.772Z,23.71
2018-07-04T07:33:57.768Z,23.74
2018-07-04T07:37:39.380Z,23.92
2018-07-04T07:41:21.279Z,24.20
2018-07-04T07:44:58.911Z,24.42
2018-07-04T07:48:40.918Z,24.61
2018-07-04T07:52:22.485Z,24.63
2018-07-04T07:55:58.110Z,24.40
2018-07-04T07:59:39.849Z,25.12
2018-07-04T08:03:23.013Z,24.83
2018-07-04T08:07:05.882Z,24.82
2018-07-04T08:10:47.667Z,24.89
2018-07-04T08:14:29.456Z,24.72
2018-07-04T08:18:12.139Z,24.82
2018-07-04T08:21:47.945Z,24.94
2018-07-04T08:25:30.072Z,25.07
2018-07-04T08:29:11.916Z,24.88
2018-07-04T08:32:53.848Z,24.62
2018-07-04T08:36:35.619Z,25.28
2018-07-04T08:40:17.475Z,25.38
2018-07-04T08:43:53.352Z,25.32
2018-07-04T08:47:35.276Z,25.19
2018-07-04T08:51:17.236Z,25.60
2018-07-04T08:54:52.525Z,25.81
2018-07-04T08:58:28.240Z,26.44
2018-07-04T09:02:10.984Z,25.92
2018-07-04T09:05:52.787Z,26.45
2018-07-04T09:09:34.417Z,26.65
2018-07-04T09:13:16.433Z,26.60
2018-07-04T09:16:58.143Z,25.92
2018-07-04T09:20:39.869Z,25.75
2018-07-04T09:24:21.741Z,25.51
2018-07-04T09:28:03.496Z,25.66
2018-07-04T09:31:45.179Z,26.18
2018-07-04T09:35:26.975Z,26.59
2018-07-04T09:39:08.620Z,26.75
2018-07-04T09:42:50.544Z,26.81
2018-07-04T09:46:32.719Z,26.87
2018-07-04T09:50:08.435Z,27.06
2018-07-04T09:53:50.339Z,27.58
2018-07-04T09:57:31.947Z,27.09
2018-07-04T10:01:19.365Z,26.91
2018-07-04T10:04:55.193Z,27.21
2018-07-04T10:08:37.194Z,27.41
2018-07-04T10:12:18.935Z,27.72
2018-07-04T10:16:00.799Z,27.34
2018-07-04T10:19:42.444Z,27.88
2018-07-04T10:23:24.420Z,27.86
2018-07-04T10:27:06.156Z,28.35
2018-07-04T10:30:47.691Z,28.10
2018-07-04T10:34:29.388Z,28.03
2018-07-04T10:38:11.383Z,28.23
2018-07-04T10:41:53.386Z,27.87
2018-07-04T10:45:35.229Z,27.78
2018-07-04T10:49:17.121Z,28.36
2018-07-04T10:52:52.633Z,28.05
2018-07-04T10:56:34.383Z,28.59
2018-07-04T11:00:16.449Z,28.49
2018-07-04T11:03:58.101Z,28.21
2018-07-04T11:07:39.774Z,29.35
2018-07-04T11:11:21.446Z,29.57
2018-07-04T11:15:03.108Z,28.87
2018-07-04T11:18:38.748Z,29.02
2018-07-04T11:22:20.633Z,29.11
2018-07-04T11:26:02.554Z,28.70
2018-07-04T11:29:44.282Z,29.59
2018-07-04T11:33:26.016Z,29.19
2018-07-04T11:37:07.714Z,29.30
2018-07-04T11:40:49.499Z,29.13
2018-07-04T11:44:31.277Z,29.51
2018-07-04T11:47:54.070Z,29.00
2018-07-04T11:51:16.971Z,29.24
2018-07-04T11:54:39.838Z,29.74
2018-07-04T11:58:02.707Z,30.23
2018-07-04T12:01:25.571Z,30.42
2018-07-04T12:05:07.495Z,29.05
2018-07-04T12:08:30.307Z,29.02
2018-07-04T12:11:53.273Z,28.58
2018-07-04T12:15:16.111Z,28.04
2018-07-04T12:18:38.942Z,28.08
2018-07-04T12:22:01.785Z,27.97
2018-07-04T12:25:24.630Z,28.27
2018-07-04T12:28:47.474Z,28.29
2018-07-04T12:32:10.346Z,28.23
2018-07-04T12:35:33.142Z,28.41
2018-07-04T12:38:55.991Z,28.66
2018-07-04T12:42:18.833Z,29.12
2018-07-04T12:45:41.642Z,29.11
2018-07-04T12:49:05.513Z,29.92
2018-07-04T12:52:28.347Z,29.03
2018-07-04T12:56:03.933Z,29.21
2018-07-04T12:59:46.007Z,29.69
2018-07-04T13:03:28.018Z,30.12
2018-07-04T13:07:09.764Z,30.34
2018-07-04T13:10:45.521Z,30.27
2018-07-04T13:14:21.207Z,30.11
2018-07-04T13:18:03.044Z,29.93
2018-07-04T13:21:45.073Z,29.65
2018-07-04T13:25:26.825Z,29.40
2018-07-04T13:29:08.645Z,28.93
2018-07-04T13:32:50.417Z,29.58
2018-07-04T13:36:32.189Z,29.53
2018-07-04T13:40:15.085Z,29.49
2018-07-04T13:43:56.992Z,29.30
2018-07-04T13:47:38.846Z,30.10
2018-07-04T13:51:20.662Z,30.66
2018-07-04T13:55:02.460Z,30.68
2018-07-04T13:58:44.433Z,31.26
2018-07-04T14:02:26.317Z,30.69
2018-07-04T14:06:09.478Z,30.98
2018-07-04T14:09:51.255Z,31.02
2018-07-04T14:13:33.018Z,31.25
2018-07-04T14:17:14.897Z,30.75
2018-07-04T14:20:56.585Z,29.74
2018-07-04T14:24:38.360Z,30.64
2018-07-04T14:28:20.256Z,30.08
2018-07-04T14:32:01.867Z,30.33
2018-07-04T14:35:43.679Z,30.07
2018-07-04T14:39:25.527Z,30.35
2018-07-04T14:43:07.485Z,30.58
2018-07-04T14:46:49.153Z,30.40
2018-07-04T14:50:30.799Z,30.52
2018-07-04T14:54:12.642Z,31.10
2018-07-04T14:57:54.381Z,31.64
2018-07-04T15:01:36.118Z,32.41
2018-07-04T15:05:11.724Z,31.90
2018-07-04T15:08:53.554Z,31.32
2018-07-04T15:12:29.245Z,31.45
2018-07-04T15:16:11.279Z,31.33
2018-07-04T15:19:53.139Z,31.68
2018-07-04T15:23:28.691Z,31.57
2018-07-04T15:27:10.685Z,31.80
2018-07-04T15:30:52.564Z,31.36
2018-07-04T15:34:34.449Z,31.95
2018-07-04T15:38:16.452Z,31.49
2018-07-04T15:41:57.996Z,32.01
2018-07-04T15:45:39.813Z,32.03
2018-07-04T15:49:21.805Z,31.96
2018-07-04T15:53:03.807Z,31.94
2018-07-04T15:56:45.721Z,31.98
2018-07-04T16:00:27.738Z,32.63
2018-07-04T16:04:09.505Z,33.10
2018-07-04T16:07:51.399Z,33.65
2018-07-04T16:11:33.288Z,32.77
2018-07-04T16:15:15.124Z,32.76
2018-07-04T16:18:50.774Z,32.46
2018-07-04T16:22:32.806Z,33.19
2018-07-04T16:26:14.705Z,33.50
2018-07-04T16:29:56.650Z,32.96
2018-07-04T16:33:38.378Z,32.73
2018-07-04T16:37:20.146Z,33.30
2018-07-04T16:41:02.209Z,33.66
2018-07-04T16:44:45.982Z,33.51
2018-07-04T16:48:27.868Z,32.87
2018-07-04T16:52:09.430Z,33.09
2018-07-04T16:55:51.195Z,33.32
2018-07-04T16:59:32.984Z,33.05
2018-07-04T17:03:14.684Z,32.51
2018-07-04T17:06:56.386Z,32.07
2018-07-04T17:10:38.071Z,32.24
2018-07-04T17:14:20.062Z,32.16
2018-07-04T17:17:56.875Z,32.16
2018-07-04T17:21:38.666Z,31.20
2018-07-04T17:25:20.564Z,31.94
2018-07-04T17:29:02.281Z,31.85
2018-07-04T17:32:44.271Z,31.38
2018-07-04T17:36:26.179Z,31.70
2018-07-04T17:40:07.926Z,31.36
2018-07-04T17:43:49.726Z,31.48
2018-07-04T17:47:32.359Z,31.27
2018-07-04T17:51:14.214Z,30.67
2018-07-04T17:54:56.342Z,31.15
2018-07-04T17:58:38.308Z,30.29
2018-07-04T18:02:20.355Z,30.34
2018-07-04T18:06:02.103Z,30.62
2018-07-04T18:09:44.018Z,29.59
2018-07-04T18:13:25.880Z,29.55
2018-07-04T18:17:07.575Z,29.39
2018-07-04T18:20:43.321Z,29.54
2018-07-04T18:24:25.092Z,29.49
2018-07-04T18:28:06.868Z,29.19
2018-07-04T18:31:42.363Z,29.09
2018-07-04T18:35:24.336Z,28.87
2018-07-04T18:39:06.102Z,29.03
2018-07-04T18:42:41.594Z,28.78
2018-07-04T18:46:17.533Z,28.67
2018-07-04T18:49:59.539Z,28.63
2018-07-04T18:53:41.394Z,28.27
2018-07-04T18:57:23.193Z,28.12
2018-07-04T19:01:05.401Z,27.98
2018-07-04T19:04:47.246Z,28.05
2018-07-04T19:08:28.967Z,27.88
2018-07-04T19:12:10.800Z,27.61
2018-07-04T19:15:52.728Z,27.47
2018-07-04T19:19:34.850Z,27.42
2018-07-04T19:23:16.754Z,27.42
2018-07-04T19:26:59.433Z,27.21
2018-07-04T19:30:41.338Z,27.11
2018-07-04T19:34:23.597Z,27.03
2018-07-04T19:38:05.396Z,26.81
2018-07-04T19:41:47.667Z,26.54
2018-07-04T19:45:29.372Z,26.51
2018-07-04T19:49:10.992Z,26.48
2018-07-04T19:52:52.702Z,26.38
2018-07-04T19:56:35.534Z,26.24
2018-07-04T20:00:17.351Z,26.10
2018-07-04T20:03:58.954Z,26.08
2018-07-04T20:07:40.858Z,26.09
2018-07-04T20:11:23.087Z,25.84
2018-07-04T20:15:05.025Z,25.94
2018-07-04T20:18:40.515Z,25.76
2018-07-04T20:22:22.232Z,25.70
2018-07-04T20:26:04.227Z,25.63
2018-07-04T20:29:46.235Z,25.46
2018-07-04T20:33:27.909Z,25.14
2018-07-04T20:37:10.133Z,25.06
2018-07-04T20:40:51.815Z,25.12
2018-07-04T20:44:33.756Z,24.84
2018-07-04T20:48:15.809Z,24.61
2018-07-04T20:51:57.614Z,24.79
2018-07-04T20:55:39.770Z,24.59
2018-07-04T20:59:21.652Z,24.36
2018-07-04T21:03:03.523Z,24.46
2018-07-04T21:06:45.565Z,24.52
2018-07-04T21:10:27.421Z,24.33
2018-07-04T21:14:09.054Z,24.26
2018-07-04T21:17:50.715Z,24.25
2018-07-04T21:21:32.371Z,24.00
2018-07-04T21:25:13.997Z,24.05
2018-07-04T21:28:55.840Z,23.97
2018-07-04T21:32:37.736Z,23.88
2018-07-04T21:36:19.526Z,23.85
2018-07-04T21:40:01.454Z,23.66
2018-07-04T21:43:43.225Z,23.67
2018-07-04T21:47:25.030Z,23.63
2018-07-04T21:51:07.323Z,23.43
2018-07-04T21:54:42.842Z,23.53
2018-07-04T21:58:24.558Z,23.55
2018-07-04T22:02:00.133Z,23.75
2018-07-04T22:05:42.451Z,23.61
2018-07-04T22:09:24.160Z,23.31
2018-07-04T22:13:06.170Z,23.32
2018-07-04T22:16:48.026Z,23.35
2018-07-04T22:20:30.750Z,23.55
2018-07-04T22:25:41.614Z,23.21
2018-07-04T22:29:23.406Z,23.16
2018-07-04T22:33:05.212Z,23.00
2018-07-04T22:36:46.883Z,22.73
2018-07-04T22:40:28.851Z,22.96
2018-07-04T22:44:10.695Z,23.03
2018-07-04T22:47:52.369Z,22.89
2018-07-04T22:51:33.891Z,23.02
2018-07-04T22:55:15.654Z,23.00
2018-07-04T22:58:57.229Z,22.71
2018-07-04T23:02:38.991Z,22.97
2018-07-04T23:06:20.710Z,23.02
2018-07-04T23:10:02.499Z,22.78
2018-07-04T23:13:44.250Z,22.61
2018-07-04T23:17:26.098Z,22.78
2018-07-04T23:21:07.881Z,22.80
2018-07-04T23:24:49.678Z,22.40
2018-07-04T23:28:31.456Z,22.14
2018-07-04T23:32:13.426Z,22.01
2018-07-04T23:35:49.091Z,22.61
2018-07-04T23:39:31.866Z,22.83
2018-07-04T23:43:13.789Z,22.62
2018-07-04T23:46:55.636Z,22.55
2018-07-04T23:50:37.513Z,22.46
2018-07-04T23:54:19.334Z,22.15
2018-07-04T23:58:01.053Z,21.99
